createdAt,value
2023-05-21T00:00:02.570Z,2.02
2023-05-21T00:01:02.665Z,2.10
2023-05-21T00:02:02.714Z,2.00
2023-05-21T00:03:02.905Z,2.15
2023-05-21T00:04:02.874Z,2.10
2023-05-21T00:05:02.896Z,2.36
2023-05-21T00:06:02.964Z,2.18
2023-05-21T00:07:02.984Z,2.13
2023-05-21T00:08:03.051Z,2.17
2023-05-21T00:09:03.132Z,2.09
2023-05-21T00:10:03.317Z,2.17
2023-05-21T00:11:03.245Z,2.22
2023-05-21T00:12:03.326Z,1.98
2023-05-21T00:13:03.373Z,1.94
2023-05-21T00:14:03.426Z,2.24
2023-05-21T00:15:03.525Z,2.40
2023-05-21T00:16:03.607Z,2.14
2023-05-21T00:17:03.635Z,1.99
2023-05-21T00:18:03.717Z,2.11
2023-05-21T00:19:03.831Z,2.07
2023-05-21T00:20:03.821Z,1.98
2023-05-21T00:21:03.874Z,2.22
2023-05-21T00:22:03.933Z,2.28
2023-05-21T00:23:03.969Z,2.38
2023-05-21T00:24:04.043Z,2.57
2023-05-21T00:25:04.127Z,2.43
2023-05-21T00:26:04.167Z,2.61
2023-05-21T00:27:04.246Z,2.70
2023-05-21T00:28:04.312Z,2.79
2023-05-21T00:29:04.358Z,2.64
2023-05-21T00:30:04.436Z,2.68
2023-05-21T00:31:04.468Z,2.57
2023-05-21T00:32:04.600Z,2.45
2023-05-21T00:33:04.630Z,2.21
2023-05-21T00:34:04.663Z,2.38
2023-05-21T00:35:04.732Z,2.32
2023-05-21T00:36:04.773Z,2.27
2023-05-21T00:37:04.837Z,2.31
2023-05-21T00:38:04.961Z,2.43
2023-05-21T00:39:04.974Z,2.62
2023-05-21T00:40:05.034Z,2.63
2023-05-21T00:41:05.092Z,2.74
2023-05-21T00:42:05.214Z,2.70
2023-05-21T00:43:05.214Z,2.76
2023-05-21T00:44:05.262Z,2.80
2023-05-21T00:45:05.332Z,2.82
2023-05-21T00:46:05.423Z,2.82
2023-05-21T00:47:05.444Z,2.83
2023-05-21T00:48:05.554Z,2.87
2023-05-21T00:49:05.566Z,3.21
2023-05-21T00:50:05.649Z,3.03
2023-05-21T00:51:05.687Z,3.20
2023-05-21T00:52:05.732Z,3.22
2023-05-21T00:53:05.794Z,3.16
2023-05-21T00:54:05.890Z,3.19
2023-05-21T00:55:05.943Z,3.25
2023-05-21T00:56:05.964Z,3.23
2023-05-21T00:57:06.002Z,3.13
2023-05-21T00:58:06.081Z,2.99
2023-05-21T00:59:06.103Z,3.10
2023-05-21T01:00:06.223Z,3.07
2023-05-21T01:01:06.309Z,3.11
2023-05-21T01:02:06.314Z,3.29
2023-05-21T01:03:06.482Z,3.33
2023-05-21T01:04:06.450Z,3.29
2023-05-21T01:05:06.521Z,3.33
2023-05-21T01:06:06.588Z,3.16
2023-05-21T01:07:06.646Z,3.27
2023-05-21T01:08:06.747Z,3.65
2023-05-21T01:09:06.756Z,3.54
2023-05-21T01:10:06.846Z,3.72
2023-05-21T01:11:06.892Z,3.78
2023-05-21T01:12:06.938Z,3.68
2023-05-21T01:13:07.008Z,3.64
2023-05-21T01:14:07.064Z,3.98
2023-05-21T01:15:07.159Z,4.11
2023-05-21T01:16:07.194Z,3.97
2023-05-21T01:17:07.388Z,4.02
2023-05-21T01:18:07.442Z,4.10
2023-05-21T01:19:07.518Z,4.28
2023-05-21T01:20:09.238Z,4.39
2023-05-21T01:21:07.604Z,4.48
2023-05-21T01:22:07.495Z,4.39
2023-05-21T01:23:07.525Z,4.47
2023-05-21T01:24:07.597Z,4.43
2023-05-21T01:25:07.613Z,4.18
2023-05-21T01:26:07.648Z,3.93
2023-05-21T01:27:07.761Z,3.95
2023-05-21T01:28:07.725Z,3.62
2023-05-21T01:29:07.760Z,3.37
2023-05-21T01:30:07.806Z,3.61
2023-05-21T01:31:07.849Z,3.36
2023-05-21T01:32:07.913Z,3.60
2023-05-21T01:33:08.062Z,3.62
2023-05-21T01:34:08.074Z,3.52
2023-05-21T01:35:08.012Z,3.49
2023-05-21T01:36:08.057Z,3.61
2023-05-21T01:37:08.124Z,3.64
2023-05-21T01:38:08.129Z,3.77
2023-05-21T01:39:08.179Z,3.94
2023-05-21T01:40:08.251Z,4.39
2023-05-21T01:41:08.270Z,4.67
2023-05-21T01:42:08.343Z,5.04
2023-05-21T01:43:08.361Z,5.00
2023-05-21T01:44:08.393Z,4.60
2023-05-21T01:45:08.483Z,4.14
2023-05-21T01:46:08.596Z,3.95
2023-05-21T01:47:08.586Z,3.73
2023-05-21T01:48:08.647Z,3.65
2023-05-21T01:49:08.715Z,3.34
2023-05-21T01:50:08.788Z,3.26
2023-05-21T01:51:08.787Z,3.32
2023-05-21T01:52:08.816Z,3.13
2023-05-21T01:53:08.869Z,3.08
2023-05-21T01:54:08.884Z,3.16
2023-05-21T01:55:08.957Z,3.40
2023-05-21T01:56:08.983Z,3.49
2023-05-21T01:57:09.037Z,3.56
2023-05-21T01:58:09.073Z,3.88
2023-05-21T01:59:09.139Z,3.94
2023-05-21T02:00:09.188Z,4.27
2023-05-21T02:01:09.209Z,4.24
2023-05-21T02:02:09.341Z,4.22
2023-05-21T02:03:09.362Z,4.47
2023-05-21T02:04:09.518Z,4.55
2023-05-21T02:05:09.326Z,4.82
2023-05-21T02:06:09.391Z,4.73
2023-05-21T02:07:09.418Z,4.70
2023-05-21T02:08:09.506Z,4.97
2023-05-21T02:09:09.540Z,4.94
2023-05-21T02:10:09.538Z,4.89
2023-05-21T02:11:09.572Z,4.81
2023-05-21T02:12:09.603Z,4.67
2023-05-21T02:13:09.611Z,4.36
2023-05-21T02:14:09.674Z,4.50
2023-05-21T02:15:09.712Z,4.43
2023-05-21T02:16:09.796Z,4.22
2023-05-21T02:17:09.783Z,4.30
2023-05-21T02:18:09.878Z,4.37
2023-05-21T02:19:09.877Z,4.25
2023-05-21T02:20:09.837Z,4.39
2023-05-21T02:21:09.890Z,4.47
2023-05-21T02:22:09.941Z,4.59
2023-05-21T02:23:10.003Z,4.76
2023-05-21T02:24:10.027Z,4.80
2023-05-21T02:25:10.113Z,5.03
2023-05-21T02:26:10.127Z,5.09
2023-05-21T02:27:10.185Z,5.28
2023-05-21T02:28:10.232Z,5.12
2023-05-21T02:29:10.280Z,5.36
2023-05-21T02:30:10.352Z,5.32
2023-05-21T02:31:10.377Z,5.11
2023-05-21T02:32:10.417Z,5.35
2023-05-21T02:33:10.493Z,5.42
2023-05-21T02:34:10.526Z,5.61
2023-05-21T02:35:10.548Z,5.59
2023-05-21T02:36:10.624Z,5.74
2023-05-21T02:37:10.681Z,5.89
2023-05-21T02:38:10.718Z,5.81
2023-05-21T02:39:10.787Z,6.04
2023-05-21T02:40:10.862Z,6.06
2023-05-21T02:41:10.873Z,5.86
2023-05-21T02:42:10.932Z,5.74
2023-05-21T02:43:10.986Z,5.64
2023-05-21T02:44:11.022Z,5.70
2023-05-21T02:45:11.093Z,5.60
2023-05-21T02:46:11.221Z,5.84
2023-05-21T02:47:11.154Z,5.54
2023-05-21T02:48:11.282Z,5.52
2023-05-21T02:49:11.226Z,5.65
2023-05-21T02:50:11.312Z,5.47
2023-05-21T02:51:11.340Z,5.23
2023-05-21T02:52:11.376Z,5.07
2023-05-21T02:53:11.457Z,4.82
2023-05-21T02:54:11.488Z,4.74
2023-05-21T02:55:11.569Z,5.05
2023-05-21T02:56:11.633Z,4.95
2023-05-21T02:57:11.673Z,5.10
2023-05-21T02:58:11.718Z,5.02
2023-05-21T02:59:11.763Z,4.91
2023-05-21T03:00:11.868Z,4.91
2023-05-21T03:01:11.913Z,4.87
2023-05-21T03:02:12.003Z,4.79
2023-05-21T03:03:12.085Z,4.59
2023-05-21T03:04:12.052Z,4.72
2023-05-21T03:05:12.118Z,4.74
2023-05-21T03:06:12.152Z,4.72
2023-05-21T03:07:12.224Z,4.62
2023-05-21T03:08:12.266Z,4.65
2023-05-21T03:09:12.327Z,4.67
2023-05-21T03:10:12.396Z,4.51
2023-05-21T03:11:12.400Z,4.84
2023-05-21T03:12:12.455Z,4.88
2023-05-21T03:13:12.524Z,4.73
2023-05-21T03:14:12.531Z,4.82
2023-05-21T03:15:12.537Z,4.65
2023-05-21T03:16:12.603Z,4.50
2023-05-21T03:17:12.652Z,4.55
2023-05-21T03:18:12.765Z,4.47
2023-05-21T03:19:12.693Z,4.57
2023-05-21T03:20:12.714Z,4.44
2023-05-21T03:21:12.749Z,4.48
2023-05-21T03:22:12.794Z,4.84
2023-05-21T03:23:15.564Z,4.68
2023-05-21T03:24:12.796Z,4.92
2023-05-21T03:25:12.842Z,4.86
2023-05-21T03:26:12.789Z,4.90
2023-05-21T03:27:12.803Z,5.07
2023-05-21T03:28:12.919Z,5.07
2023-05-21T03:29:12.771Z,5.18
2023-05-21T03:30:12.807Z,5.68
2023-05-21T03:31:12.769Z,6.51
2023-05-21T03:32:12.866Z,6.54
2023-05-21T03:33:12.753Z,7.12
2023-05-21T03:34:12.725Z,7.06
2023-05-21T03:35:12.739Z,7.36
2023-05-21T03:36:12.741Z,7.23
2023-05-21T03:37:12.707Z,7.37
2023-05-21T03:38:12.728Z,7.22
2023-05-21T03:39:12.702Z,7.10
2023-05-21T03:40:12.718Z,6.68
2023-05-21T03:41:12.722Z,6.89
2023-05-21T03:42:12.685Z,6.37
2023-05-21T03:43:12.669Z,6.14
2023-05-21T03:44:12.664Z,6.30
2023-05-21T03:45:12.696Z,6.37
2023-05-21T03:46:12.680Z,6.54
2023-05-21T03:47:12.650Z,6.63
2023-05-21T03:48:12.652Z,6.71
2023-05-21T03:49:12.634Z,6.67
2023-05-21T03:50:12.633Z,6.31
2023-05-21T03:51:12.629Z,6.37
2023-05-21T03:52:12.602Z,6.21
2023-05-21T03:53:12.630Z,5.99
2023-05-21T03:54:12.618Z,6.12
2023-05-21T03:55:12.593Z,6.13
2023-05-21T03:56:12.577Z,5.98
2023-05-21T03:57:12.589Z,6.13
2023-05-21T03:58:12.572Z,6.35
2023-05-21T03:59:12.548Z,6.11
2023-05-21T04:00:12.625Z,6.15
2023-05-21T04:01:12.553Z,6.05
2023-05-21T04:02:12.604Z,6.08
2023-05-21T04:03:12.686Z,5.97
2023-05-21T04:04:12.687Z,5.91
2023-05-21T04:05:12.563Z,5.96
2023-05-21T04:06:12.537Z,6.01
2023-05-21T04:07:12.600Z,5.80
2023-05-21T04:08:12.704Z,5.89
2023-05-21T04:09:12.654Z,5.83
2023-05-21T04:10:12.706Z,5.70
2023-05-21T04:11:12.736Z,5.87
2023-05-21T04:12:12.804Z,5.73
2023-05-21T04:13:12.837Z,5.54
2023-05-21T04:14:12.885Z,5.47
2023-05-21T04:15:12.927Z,5.18
2023-05-21T04:16:12.992Z,5.23
2023-05-21T04:17:13.020Z,5.36
2023-05-21T04:18:13.050Z,5.50
2023-05-21T04:19:13.139Z,5.94
2023-05-21T04:20:13.168Z,5.94
2023-05-21T04:21:13.235Z,6.03
2023-05-21T04:22:13.272Z,6.29
2023-05-21T04:23:13.325Z,6.55
2023-05-21T04:24:13.362Z,6.88
2023-05-21T04:25:13.395Z,7.08
2023-05-21T04:26:13.443Z,7.18
2023-05-21T04:27:13.476Z,7.49
2023-05-21T04:28:13.560Z,7.18
2023-05-21T04:29:13.556Z,6.98
2023-05-21T04:30:13.596Z,7.15
2023-05-21T04:31:13.720Z,6.99
2023-05-21T04:32:13.679Z,6.97
2023-05-21T04:33:13.716Z,7.04
2023-05-21T04:34:13.747Z,6.80
2023-05-21T04:35:13.824Z,7.10
2023-05-21T04:36:13.876Z,7.40
2023-05-21T04:37:14.030Z,7.38
2023-05-21T04:38:14.001Z,7.48
2023-05-21T04:39:14.045Z,7.32
2023-05-21T04:40:14.099Z,7.29
2023-05-21T04:41:14.153Z,6.96
2023-05-21T04:42:14.229Z,7.07
2023-05-21T04:43:14.230Z,6.97
2023-05-21T04:44:14.261Z,6.83
2023-05-21T04:45:14.289Z,6.48
2023-05-21T04:46:14.356Z,6.14
2023-05-21T04:47:14.367Z,6.14
2023-05-21T04:48:14.424Z,6.17
2023-05-21T04:49:14.479Z,5.80
2023-05-21T04:50:14.528Z,5.92
2023-05-21T04:51:14.587Z,5.63
2023-05-21T04:52:14.637Z,5.77
2023-05-21T04:53:14.706Z,5.73
2023-05-21T04:54:14.747Z,5.71
2023-05-21T04:55:14.804Z,5.35
2023-05-21T04:56:14.875Z,5.54
2023-05-21T04:57:14.930Z,5.35
2023-05-21T04:58:15.000Z,5.44
2023-05-21T04:59:15.052Z,5.50
2023-05-21T05:00:15.094Z,5.18
2023-05-21T05:01:15.200Z,5.23
2023-05-21T05:02:15.210Z,5.24
2023-05-21T05:03:15.481Z,5.25
2023-05-21T05:04:15.330Z,5.50
2023-05-21T05:05:15.406Z,5.20
2023-05-21T05:06:15.478Z,5.49
2023-05-21T05:07:15.524Z,5.46
2023-05-21T05:08:16.221Z,5.67
2023-05-21T05:09:15.657Z,5.86
2023-05-21T05:10:15.709Z,6.10
2023-05-21T05:11:15.773Z,6.46
2023-05-21T05:12:15.829Z,6.61
2023-05-21T05:13:15.884Z,7.04
2023-05-21T05:14:15.930Z,6.90
2023-05-21T05:15:15.989Z,7.06
2023-05-21T05:16:16.049Z,7.65
2023-05-21T05:17:16.076Z,7.77
2023-05-21T05:18:16.150Z,7.72
2023-05-21T05:19:16.254Z,8.31
2023-05-21T05:20:16.240Z,8.60
2023-05-21T05:21:16.267Z,9.29
2023-05-21T05:22:16.375Z,9.51
2023-05-21T05:23:16.364Z,9.86
2023-05-21T05:24:16.416Z,9.81
2023-05-21T05:25:16.460Z,9.96
2023-05-21T05:26:16.488Z,10.36
2023-05-21T05:27:16.523Z,10.78
2023-05-21T05:28:16.574Z,10.81
2023-05-21T05:29:16.635Z,11.11
2023-05-21T05:30:16.666Z,11.44
2023-05-21T05:31:16.734Z,11.66
2023-05-21T05:32:16.740Z,12.13
2023-05-21T05:33:16.780Z,12.93
2023-05-21T05:34:16.807Z,12.99
2023-05-21T05:35:16.856Z,13.30
2023-05-21T05:36:16.899Z,13.00
2023-05-21T05:37:16.939Z,12.95
2023-05-21T05:38:16.986Z,12.41
2023-05-21T05:39:17.012Z,12.54
2023-05-21T05:40:17.046Z,12.36
2023-05-21T05:41:17.095Z,12.39
2023-05-21T05:42:17.105Z,12.77
2023-05-21T05:43:17.129Z,12.60
2023-05-21T05:44:17.158Z,12.81
2023-05-21T05:45:17.209Z,12.44
2023-05-21T05:46:17.339Z,12.94
2023-05-21T05:47:17.258Z,12.17
2023-05-21T05:48:17.294Z,12.68
2023-05-21T05:49:17.324Z,12.83
2023-05-21T05:50:17.377Z,12.85
2023-05-21T05:51:17.404Z,12.88
2023-05-21T05:52:17.534Z,13.04
2023-05-21T05:53:17.534Z,12.62
2023-05-21T05:54:18.422Z,12.97
2023-05-21T05:55:17.594Z,12.81
2023-05-21T05:56:17.581Z,12.70
2023-05-21T05:57:17.617Z,12.83
2023-05-21T05:58:17.630Z,12.87
2023-05-21T05:59:17.623Z,12.90
2023-05-21T06:00:17.595Z,13.13
2023-05-21T06:01:17.689Z,12.87
2023-05-21T06:02:17.758Z,13.25
2023-05-21T06:03:17.869Z,13.22
2023-05-21T06:04:17.700Z,13.49
2023-05-21T06:05:17.798Z,13.42
2023-05-21T06:06:17.869Z,14.13
2023-05-21T06:07:17.725Z,14.01
2023-05-21T06:08:17.747Z,14.08
2023-05-21T06:09:17.850Z,13.85
2023-05-21T06:10:17.771Z,14.04
2023-05-21T06:11:17.818Z,14.32
2023-05-21T06:12:17.837Z,14.16
2023-05-21T06:13:17.854Z,14.21
2023-05-21T06:14:17.867Z,14.34
2023-05-21T06:15:17.868Z,14.15
2023-05-21T06:16:18.019Z,13.91
2023-05-21T06:17:17.947Z,14.36
2023-05-21T06:18:17.937Z,13.72
2023-05-21T06:19:18.001Z,13.58
2023-05-21T06:20:17.983Z,13.79
2023-05-21T06:21:18.028Z,13.82
2023-05-21T06:22:18.053Z,14.24
2023-05-21T06:23:18.074Z,14.15
2023-05-21T06:24:18.081Z,13.96
2023-05-21T06:25:18.125Z,13.82
2023-05-21T06:26:18.144Z,13.99
2023-05-21T06:27:18.187Z,13.63
2023-05-21T06:28:18.201Z,13.08
2023-05-21T06:29:18.241Z,13.31
2023-05-21T06:30:18.262Z,13.55
2023-05-21T06:31:18.318Z,13.70
2023-05-21T06:32:18.338Z,13.67
2023-05-21T06:33:18.442Z,13.83
2023-05-21T06:34:18.360Z,13.73
2023-05-21T06:35:18.426Z,13.58
2023-05-21T06:36:18.386Z,13.72
2023-05-21T06:37:18.445Z,14.04
2023-05-21T06:38:18.481Z,14.20
2023-05-21T06:39:18.450Z,14.36
2023-05-21T06:40:18.465Z,14.28
2023-05-21T06:41:18.501Z,14.80
2023-05-21T06:42:18.513Z,14.67
2023-05-21T06:43:18.524Z,14.44
2023-05-21T06:44:18.542Z,14.86
2023-05-21T06:45:18.557Z,14.97
2023-05-21T06:46:18.630Z,14.93
2023-05-21T06:47:18.566Z,15.46
2023-05-21T06:48:18.587Z,15.51
2023-05-21T06:49:18.593Z,14.89
2023-05-21T06:50:18.581Z,15.72
2023-05-21T06:51:18.609Z,15.34
2023-05-21T06:52:18.615Z,15.23
2023-05-21T06:53:18.621Z,14.95
2023-05-21T06:54:18.634Z,15.10
2023-05-21T06:55:18.723Z,15.74
2023-05-21T06:56:18.645Z,15.57
2023-05-21T06:57:18.633Z,14.57
2023-05-21T06:58:18.633Z,15.33
2023-05-21T06:59:18.651Z,15.51
2023-05-21T07:00:18.666Z,15.14
2023-05-21T07:01:18.793Z,15.34
2023-05-21T07:02:18.726Z,14.97
2023-05-21T07:03:18.714Z,15.17
2023-05-21T07:04:18.650Z,15.07
2023-05-21T07:05:18.644Z,14.33
2023-05-21T07:06:18.651Z,14.41
2023-05-21T07:07:18.661Z,13.49
2023-05-21T07:08:18.651Z,13.21
2023-05-21T07:09:18.673Z,13.26
2023-05-21T07:10:18.677Z,13.34
2023-05-21T07:11:18.682Z,13.56
2023-05-21T07:12:18.680Z,12.74
2023-05-21T07:13:18.702Z,12.30
2023-05-21T07:14:18.660Z,12.13
2023-05-21T07:15:18.664Z,12.18
2023-05-21T07:16:18.726Z,11.83
2023-05-21T07:17:18.665Z,11.98
2023-05-21T07:18:18.666Z,12.30
2023-05-21T07:19:18.699Z,12.04
2023-05-21T07:20:18.659Z,12.50
2023-05-21T07:21:18.656Z,12.39
2023-05-21T07:22:18.647Z,11.98
2023-05-21T07:23:18.638Z,12.55
2023-05-21T07:24:18.621Z,12.04
2023-05-21T07:25:18.653Z,12.01
2023-05-21T07:26:18.651Z,11.58
2023-05-21T07:28:19.632Z,11.37
2023-05-21T07:29:18.622Z,11.42
2023-05-21T07:30:18.610Z,11.62
2023-05-21T07:31:18.678Z,11.77
2023-05-21T07:32:18.624Z,11.70
2023-05-21T07:33:18.581Z,11.60
2023-05-21T07:34:18.596Z,11.67
2023-05-21T07:35:18.613Z,12.15
2023-05-21T07:36:18.586Z,12.38
2023-05-21T07:37:18.736Z,12.26
2023-05-21T07:38:18.570Z,12.26
2023-05-21T07:39:18.557Z,12.77
2023-05-21T07:40:18.594Z,12.50
2023-05-21T07:41:18.997Z,12.25
2023-05-21T07:42:18.665Z,11.53
2023-05-21T07:43:18.695Z,11.64
2023-05-21T07:44:18.754Z,11.39
2023-05-21T07:45:18.794Z,12.00
2023-05-21T07:46:18.908Z,11.91
2023-05-21T07:47:18.892Z,11.92
2023-05-21T07:48:18.961Z,11.76
2023-05-21T07:49:19.149Z,11.81
2023-05-21T07:50:19.107Z,11.54
2023-05-21T07:51:19.151Z,11.58
2023-05-21T07:52:19.234Z,11.58
2023-05-21T07:53:19.273Z,11.75
2023-05-21T07:54:19.337Z,11.43
2023-05-21T07:55:19.418Z,11.34
2023-05-21T07:56:19.462Z,10.33
2023-05-21T07:57:19.537Z,10.42
2023-05-21T07:58:19.589Z,11.03
2023-05-21T07:59:19.631Z,10.73
2023-05-21T08:00:19.683Z,10.90
2023-05-21T08:01:19.762Z,10.83
2023-05-21T08:02:19.882Z,10.64
2023-05-21T08:03:19.930Z,10.52
2023-05-21T08:04:19.999Z,10.77
2023-05-21T08:05:19.952Z,10.88
2023-05-21T08:06:20.006Z,10.35
2023-05-21T08:07:20.036Z,10.24
2023-05-21T08:08:20.110Z,10.33
2023-05-21T08:09:20.118Z,10.25
2023-05-21T08:10:20.208Z,10.58
2023-05-21T08:11:20.230Z,10.17
2023-05-21T08:12:20.274Z,10.14
2023-05-21T08:13:20.308Z,9.84
2023-05-21T08:14:20.328Z,9.74
2023-05-21T08:15:20.361Z,9.71
2023-05-21T08:16:20.484Z,9.66
2023-05-21T08:17:20.475Z,9.93
2023-05-21T08:18:20.476Z,9.58
2023-05-21T08:19:20.538Z,9.45
2023-05-21T08:20:20.594Z,9.76
2023-05-21T08:21:20.576Z,9.09
2023-05-21T08:22:20.617Z,8.87
2023-05-21T08:23:20.641Z,9.08
2023-05-21T08:24:20.709Z,9.31
2023-05-21T08:25:20.702Z,9.09
2023-05-21T08:26:20.717Z,8.86
2023-05-21T08:27:20.767Z,8.73
2023-05-21T08:28:20.782Z,8.48
2023-05-21T08:29:20.818Z,8.46
2023-05-21T08:30:20.857Z,8.49
2023-05-21T08:31:20.889Z,8.30
2023-05-21T08:32:20.898Z,7.81
2023-05-21T08:33:21.472Z,7.57
2023-05-21T08:34:20.921Z,7.45
2023-05-21T08:35:20.966Z,7.92
2023-05-21T08:36:20.960Z,7.65
2023-05-21T08:37:20.987Z,7.81
2023-05-21T08:38:21.034Z,7.55
2023-05-21T08:39:21.017Z,8.17
2023-05-21T08:40:21.100Z,8.05
2023-05-21T08:41:21.065Z,7.29
2023-05-21T08:42:32.873Z,7.44
2023-05-21T08:43:22.095Z,7.45
2023-05-21T08:44:21.071Z,7.47
2023-05-21T08:45:21.065Z,7.49
2023-05-21T08:46:21.091Z,6.91
2023-05-21T08:47:21.062Z,6.59
2023-05-21T08:48:21.051Z,6.78
2023-05-21T08:49:21.022Z,6.70
2023-05-21T08:50:21.062Z,6.43
2023-05-21T08:51:21.031Z,6.05
2023-05-21T08:52:21.000Z,5.88
2023-05-21T08:53:28.173Z,5.94
2023-05-21T08:54:21.994Z,5.95
2023-05-21T08:55:20.980Z,5.87
2023-05-21T08:56:20.967Z,5.52
2023-05-21T08:57:20.971Z,5.47
2023-05-21T08:58:21.041Z,5.67
2023-05-21T08:59:20.965Z,5.45
2023-05-21T09:00:20.977Z,5.38
2023-05-21T09:01:21.900Z,5.00
2023-05-21T09:02:20.950Z,5.09
2023-05-21T09:03:21.006Z,5.18
2023-05-21T09:04:21.934Z,5.03
2023-05-21T09:05:20.931Z,4.77
2023-05-21T09:06:20.917Z,4.31
2023-05-21T09:07:20.926Z,4.28
2023-05-21T09:08:20.919Z,4.16
2023-05-21T09:09:20.905Z,4.16
2023-05-21T09:10:21.001Z,3.95
2023-05-21T09:11:20.893Z,3.87
2023-05-21T09:12:20.901Z,3.79
2023-05-21T09:13:20.886Z,3.65
2023-05-21T09:14:20.865Z,3.44
2023-05-21T09:15:20.866Z,3.41
2023-05-21T09:16:20.873Z,3.34
2023-05-21T09:17:20.852Z,3.20
2023-05-21T09:18:20.838Z,3.04
2023-05-21T09:19:20.847Z,2.98
2023-05-21T09:20:20.815Z,2.85
2023-05-21T09:21:20.815Z,2.78
2023-05-21T09:22:20.837Z,2.82
2023-05-21T09:23:20.849Z,2.74
2023-05-21T09:24:20.911Z,2.76
2023-05-21T09:25:20.916Z,2.60
2023-05-21T09:26:20.978Z,2.51
2023-05-21T09:27:20.997Z,2.39
2023-05-21T09:28:21.050Z,2.23
2023-05-21T09:29:21.101Z,2.24
2023-05-21T09:30:34.850Z,2.12
2023-05-21T09:31:22.172Z,2.09
2023-05-21T09:32:21.155Z,1.99
2023-05-21T09:33:21.124Z,1.83
2023-05-21T09:34:21.129Z,1.82
2023-05-21T09:35:21.121Z,1.68
2023-05-21T09:36:21.117Z,1.68
2023-05-21T09:37:27.579Z,1.67
2023-05-21T09:38:22.113Z,1.63
2023-05-21T09:39:21.097Z,1.61
2023-05-21T09:40:21.079Z,1.49
2023-05-21T09:41:22.209Z,1.40
2023-05-21T09:42:21.082Z,1.44
2023-05-21T09:43:21.069Z,1.41
2023-05-21T09:44:21.069Z,1.26
2023-05-21T09:45:21.142Z,1.29
2023-05-21T09:46:21.142Z,1.23
2023-05-21T09:47:21.188Z,1.24
2023-05-21T09:48:21.216Z,1.17
2023-05-21T09:49:21.282Z,1.11
2023-05-21T09:50:21.354Z,1.11
2023-05-21T09:51:21.394Z,1.05
2023-05-21T09:52:21.463Z,1.10
2023-05-21T09:53:21.529Z,1.13
2023-05-21T09:54:21.569Z,1.06
2023-05-21T09:55:21.626Z,1.03
2023-05-21T09:56:21.667Z,1.02
2023-05-21T09:57:21.806Z,1.01
2023-05-21T09:58:21.785Z,1.00
2023-05-21T09:59:21.851Z,1.09
2023-05-21T10:00:21.903Z,1.09
2023-05-21T10:01:21.989Z,1.11
2023-05-21T10:02:22.090Z,1.16
2023-05-21T10:03:22.075Z,1.25
2023-05-21T10:04:22.127Z,1.39
2023-05-21T10:05:22.161Z,1.38
2023-05-21T10:06:22.215Z,1.36
2023-05-21T10:07:22.252Z,1.41
2023-05-21T10:08:22.305Z,1.34
2023-05-21T10:09:22.408Z,1.35
2023-05-21T10:10:22.411Z,1.23
2023-05-21T10:11:22.510Z,1.35
2023-05-21T10:12:22.515Z,1.36
2023-05-21T10:13:22.566Z,1.38
2023-05-21T10:14:22.761Z,1.32
2023-05-21T10:15:22.675Z,1.32
2023-05-21T10:16:22.734Z,1.36
2023-05-21T10:17:22.782Z,1.38
2023-05-21T10:18:22.780Z,1.30
2023-05-21T10:19:22.868Z,1.44
2023-05-21T10:20:22.896Z,1.38
2023-05-21T10:21:22.924Z,1.36
2023-05-21T10:22:22.951Z,1.29
2023-05-21T10:23:22.989Z,1.26
2023-05-21T10:24:23.038Z,1.31
2023-05-21T10:25:23.097Z,1.20
2023-05-21T10:26:23.150Z,1.12
2023-05-21T10:27:23.169Z,1.14
2023-05-21T10:28:23.269Z,1.23
2023-05-21T10:29:23.265Z,1.19
2023-05-21T10:30:23.302Z,1.09
2023-05-21T10:31:23.367Z,1.15
2023-05-21T10:32:23.455Z,1.16
2023-05-21T10:33:23.501Z,1.13
2023-05-21T10:34:23.482Z,1.14
2023-05-21T10:35:23.550Z,1.23
2023-05-21T10:36:23.606Z,1.16
2023-05-21T10:37:23.620Z,1.11
2023-05-21T10:38:23.665Z,1.07
2023-05-21T10:39:23.718Z,1.03
2023-05-21T10:40:23.755Z,1.00
2023-05-21T10:41:23.859Z,1.01
2023-05-21T10:42:23.848Z,0.96
2023-05-21T10:43:23.917Z,0.96
2023-05-21T10:44:23.971Z,0.93
2023-05-21T10:45:24.024Z,0.90
2023-05-21T10:46:24.083Z,0.91
2023-05-21T10:47:24.116Z,0.92
2023-05-21T10:48:24.170Z,0.96
2023-05-21T10:49:24.237Z,0.85
2023-05-21T10:50:24.260Z,0.88
2023-05-21T10:51:24.354Z,0.83
2023-05-21T10:52:24.371Z,0.79
2023-05-21T10:53:24.443Z,0.85
2023-05-21T10:54:24.459Z,0.88
2023-05-21T10:55:24.581Z,0.85
2023-05-21T10:56:24.571Z,0.82
2023-05-21T10:57:24.642Z,0.83
2023-05-21T10:58:24.694Z,0.84
2023-05-21T10:59:24.739Z,0.77
2023-05-21T11:00:24.804Z,0.74
2023-05-21T11:01:24.938Z,0.70
2023-05-21T11:02:25.037Z,0.74
2023-05-21T11:03:25.236Z,0.72
2023-05-21T11:04:25.019Z,0.73
2023-05-21T11:05:25.069Z,0.70
2023-05-21T11:06:25.155Z,0.75
2023-05-21T11:07:25.193Z,0.75
2023-05-21T11:08:25.266Z,0.67
2023-05-21T11:09:25.318Z,0.70
2023-05-21T11:10:25.369Z,0.68
2023-05-21T11:11:25.549Z,0.71
2023-05-21T11:12:25.485Z,0.74
2023-05-21T11:13:25.538Z,0.71
2023-05-21T11:14:25.612Z,0.69
2023-05-21T11:15:25.640Z,0.69
2023-05-21T11:16:25.764Z,0.67
2023-05-21T11:17:25.798Z,0.68
2023-05-21T11:18:25.818Z,0.63
2023-05-21T11:19:25.896Z,0.60
2023-05-21T11:20:25.926Z,0.61
2023-05-21T11:21:25.972Z,0.57
2023-05-21T11:22:26.036Z,0.58
2023-05-21T11:23:26.126Z,0.57
2023-05-21T11:24:26.125Z,0.54
2023-05-21T11:25:26.173Z,0.54
2023-05-21T11:26:26.349Z,0.59
2023-05-21T11:27:26.288Z,0.58
2023-05-21T11:28:26.336Z,0.59
2023-05-21T11:29:26.400Z,0.59
2023-05-21T11:30:26.435Z,0.56
2023-05-21T11:31:26.567Z,0.53
2023-05-21T11:32:26.597Z,0.52
2023-05-21T11:33:26.607Z,0.51
2023-05-21T11:34:26.671Z,0.54
2023-05-21T11:35:26.751Z,0.51
2023-05-21T11:36:26.793Z,0.54
2023-05-21T11:37:26.869Z,0.51
2023-05-21T11:38:26.912Z,0.51
2023-05-21T11:39:26.986Z,0.50
2023-05-21T11:40:27.053Z,0.50
2023-05-21T11:41:27.085Z,0.54
2023-05-21T11:42:27.142Z,0.55
2023-05-21T11:43:27.229Z,0.54
2023-05-21T11:44:27.270Z,0.54
2023-05-21T11:45:27.323Z,0.55
2023-05-21T11:46:27.530Z,0.53
2023-05-21T11:47:27.501Z,0.52
2023-05-21T11:48:28.514Z,0.53
2023-05-21T11:49:27.582Z,0.53
2023-05-21T11:50:27.639Z,0.51
2023-05-21T11:51:27.689Z,0.51
2023-05-21T11:52:27.753Z,0.50
2023-05-21T11:53:27.801Z,0.53
2023-05-21T11:54:27.890Z,0.55
2023-05-21T11:55:27.944Z,0.57
2023-05-21T11:56:27.999Z,0.56
2023-05-21T11:57:28.104Z,0.50
2023-05-21T11:58:28.196Z,0.52
2023-05-21T11:59:28.207Z,0.52
2023-05-21T12:00:28.246Z,0.51
2023-05-21T12:01:28.323Z,0.54
2023-05-21T12:02:28.555Z,0.52
2023-05-21T12:03:28.551Z,0.52
2023-05-21T12:04:28.497Z,0.52
2023-05-21T12:05:28.582Z,0.51
2023-05-21T12:06:28.680Z,0.51
2023-05-21T12:07:28.727Z,0.50
2023-05-21T12:08:28.784Z,0.51
2023-05-21T12:09:28.858Z,0.56
2023-05-21T12:10:28.895Z,0.54
2023-05-21T12:11:28.960Z,0.54
2023-05-21T12:12:38.536Z,0.55
2023-05-21T12:13:30.019Z,0.55
2023-05-21T12:14:29.017Z,0.55
2023-05-21T12:15:28.996Z,0.56
2023-05-21T12:16:29.038Z,0.58
2023-05-21T12:17:29.032Z,0.57
2023-05-21T12:18:28.965Z,0.53
2023-05-21T12:19:29.048Z,0.54
2023-05-21T12:20:29.084Z,0.55
2023-05-21T12:21:29.068Z,0.58
2023-05-21T12:22:29.117Z,0.60
2023-05-21T12:23:29.159Z,0.56
2023-05-21T12:24:29.228Z,0.56
2023-05-21T12:25:29.294Z,0.54
2023-05-21T12:26:29.328Z,0.55
2023-05-21T12:27:29.378Z,0.58
2023-05-21T12:28:29.445Z,0.58
2023-05-21T12:29:29.505Z,0.54
2023-05-21T12:30:29.600Z,0.52
2023-05-21T12:31:29.628Z,0.52
2023-05-21T12:32:29.722Z,0.54
2023-05-21T12:33:29.708Z,0.53
2023-05-21T12:34:29.734Z,0.51
2023-05-21T12:35:29.844Z,0.52
2023-05-21T12:36:29.831Z,0.54
2023-05-21T12:37:29.902Z,0.51
2023-05-21T12:38:29.890Z,0.50
2023-05-21T12:39:29.932Z,0.53
2023-05-21T12:40:29.975Z,0.56
2023-05-21T12:41:30.021Z,0.54
2023-05-21T12:42:30.057Z,0.51
2023-05-21T12:43:30.107Z,0.49
2023-05-21T12:44:30.123Z,0.54
2023-05-21T12:45:30.134Z,0.54
2023-05-21T12:46:30.236Z,0.51
2023-05-21T12:47:30.176Z,0.55
2023-05-21T12:48:30.188Z,0.54
2023-05-21T12:49:30.204Z,0.51
2023-05-21T12:50:30.265Z,0.61
2023-05-21T12:51:30.270Z,0.59
2023-05-21T12:52:30.299Z,0.54
2023-05-21T12:53:30.314Z,0.58
2023-05-21T12:54:30.348Z,0.57
2023-05-21T12:55:30.378Z,0.52
2023-05-21T12:56:30.406Z,0.54
2023-05-21T12:57:30.443Z,0.52
2023-05-21T12:58:30.450Z,0.53
2023-05-21T12:59:30.506Z,0.56
2023-05-21T13:00:30.562Z,0.54
2023-05-21T13:01:30.625Z,0.52
2023-05-21T13:02:30.671Z,0.54
2023-05-21T13:03:30.667Z,0.52
2023-05-21T13:04:30.788Z,0.54
2023-05-21T13:05:30.777Z,0.54
2023-05-21T13:06:30.772Z,0.53
2023-05-21T13:07:30.848Z,0.56
2023-05-21T13:08:30.787Z,0.52
2023-05-21T13:09:30.826Z,0.50
2023-05-21T13:10:30.817Z,0.53
2023-05-21T13:11:30.811Z,0.54
2023-05-21T13:12:30.827Z,0.52
2023-05-21T13:13:30.805Z,0.52